Time;durP1;ratioP1;P1;durP2;ratioP2;P2;SDS_P1;SDS_P2;PMS_P1;PMS_P2;Temp;Humidity;BMP_temperature;BMP_pressure;BME280_temperature;BME280_humidity;BME280_pressure;Samples;Min_cycle;Max_cycle;Signal;HPM_P1;HPM_P2
2022/11/21 00:01:18;;;;;;;;;;;;;;;-3.02;100.00;99794.19;4958590;28;20050;-73
2022/11/21 00:03:44;;;;;;;10.25;5.72;;;;;;;-2.96;100.00;99790.31;4989064;28;19941;-75
2022/11/21 00:06:09;;;;;;;12.43;7.03;;;;;;;-2.97;100.00;99788.66;4957687;28;20484;-75
2022/11/21 00:08:35;;;;;;;11.75;6.45;;;;;;;-2.98;100.00;99779.13;4958770;28;20047;-74
2022/11/21 00:11:00;;;;;;;13.50;6.63;;;;;;;-2.92;100.00;99788.38;4963023;28;20034;-75
2022/11/21 00:13:25;;;;;;;13.15;8.02;;;;;;;-2.95;100.00;99783.31;4959235;28;20291;-75
2022/11/21 00:15:51;;;;;;;11.35;6.65;;;;;;;-2.90;100.00;99783.84;4961626;28;20031;-75
2022/11/21 00:18:16;;;;;;;11.40;6.45;;;;;;;-2.97;100.00;99773.81;4966654;28;20671;-73
2022/11/21 00:20:42;;;;;;;16.92;7.15;;;;;;;-2.90;100.00;99770.78;4961845;28;20612;-74
2022/11/21 00:23:08;;;;;;;11.05;5.75;;;;;;;-2.94;100.00;99766.72;4966132;28;20074;-73
2022/11/21 00:25:34;;;;;;;;;;;;;;;-2.88;100.00;99764.56;4975431;28;20428;-74
2022/11/21 00:27:59;;;;;;;11.43;6.32;;;;;;;-2.95;100.00;99759.81;4980604;28;19914;-74
2022/11/21 00:30:25;;;;;;;11.73;5.65;;;;;;;-3.06;100.00;99748.31;4958467;28;20038;-73
2022/11/21 00:32:50;;;;;;;13.50;6.68;;;;;;;-3.12;100.00;99748.69;4960167;28;20050;-74
2022/11/21 00:35:16;;;;;;;11.15;6.30;;;;;;;-3.22;100.00;99742.41;4959552;28;20496;-74
2022/11/21 00:37:41;;;;;;;14.60;6.80;;;;;;;-3.14;100.00;99744.50;4960550;28;20495;-73
2022/11/21 00:40:07;;;;;;;12.13;6.80;;;;;;;-3.14;100.00;99750.56;4964922;28;20138;-75
2022/11/21 00:42:32;;;;;;;13.80;6.00;;;;;;;-3.14;100.00;99766.22;4957371;28;20050;-72
2022/11/21 00:44:58;;;;;;;13.65;6.70;;;;;;;-3.19;100.00;99763.09;4967519;28;20117;-73
2022/11/21 00:47:23;;;;;;;15.13;7.30;;;;;;;-3.20;100.00;99746.59;4960463;28;20381;-73
2022/11/21 00:49:48;;;;;;;12.25;7.10;;;;;;;-3.03;100.00;99773.38;4960009;28;20035;-74
2022/11/21 00:52:15;;;;;;;15.27;7.75;;;;;;;-3.07;100.00;99783.19;4959711;28;20476;-74
2022/11/21 00:54:41;;;;;;;13.35;7.40;;;;;;;-3.01;100.00;99782.78;4983246;28;20050;-74
2022/11/21 00:57:06;;;;;;;14.63;8.02;;;;;;;-2.95;100.00;99775.47;4962720;28;20486;-75
2022/11/21 00:59:32;;;;;;;15.40;7.22;;;;;;;-3.00;100.00;99770.56;4958548;28;20510;-74
2022/11/21 01:01:57;;;;;;;16.67;8.80;;;;;;;-2.95;100.00;99778.09;4966800;28;20038;-72
2022/11/21 01:04:23;;;;;;;17.95;8.10;;;;;;;-2.95;100.00;99773.75;4960028;28;20042;-74
2022/11/21 01:06:48;;;;;;;15.40;7.75;;;;;;;-3.05;100.00;99768.25;4976148;28;20038;-75
2022/11/21 01:09:13;;;;;;;14.85;7.22;;;;;;;-3.05;100.00;99773.47;4962128;28;20077;-74
2022/11/21 01:11:39;;;;;;;13.88;8.02;;;;;;;-3.01;100.00;99771.50;4975611;28;20047;-76
2022/11/21 01:14:05;;;;;;;19.13;9.57;;;;;;;-2.95;100.00;99771.13;4962622;28;20063;-75
2022/11/21 01:16:30;;;;;;;15.52;8.45;;;;;;;-3.01;100.00;99772.34;4957466;28;20023;-75
2022/11/21 01:18:57;;;;;;;18.17;9.02;;;;;;;-2.87;100.00;99774.06;4940962;28;20105;-75
2022/11/21 01:21:26;;;;;;;;;;;;;;;-2.94;100.00;99764.13;4976056;28;20260;-74
2022/11/21 01:23:52;;;;;;;17.10;8.57;;;;;;;-2.93;100.00;99768.38;4960927;28;20735;-75
2022/11/21 01:26:23;;;;;;;18.65;9.02;;;;;;;-2.91;100.00;99772.56;4959156;28;20053;-73
2022/11/21 01:28:49;;;;;;;18.02;8.48;;;;;;;-2.82;100.00;99784.19;4975938;28;20046;-75
2022/11/21 01:31:17;;;;;;;;;;;;;;;-2.81;100.00;99786.72;4961051;28;20035;-76
2022/11/21 01:33:42;;;;;;;16.17;8.57;;;;;;;-2.90;100.00;99774.25;4974648;28;20041;-74
2022/11/21 01:36:18;;;;;;;18.80;9.45;;;;;;;-2.82;100.00;99781.59;4960654;28;20524;-73
2022/11/21 01:38:46;;;;;;;20.38;9.10;;;;;;;-2.77;100.00;99789.97;4958520;28;20130;-76
2022/11/21 01:41:14;;;;;;;19.13;9.30;;;;;;;-2.67;100.00;99792.78;4959508;28;20070;-75
2022/11/21 01:43:40;;;;;;;17.10;9.20;;;;;;;-2.64;100.00;99797.84;4973822;28;20089;-76
2022/11/21 01:46:08;;;;;;;18.20;9.77;;;;;;;-2.55;100.00;99800.69;4960382;28;20034;-76
2022/11/21 01:48:42;;;;;;;19.80;9.55;;;;;;;-2.44;100.00;99807.78;4957977;28;20078;-76
2022/11/21 01:51:15;;;;;;;18.67;8.80;;;;;;;-2.47;100.00;99813.22;4984297;28;20046;-74
2022/11/21 01:53:47;;;;;;;16.08;9.38;;;;;;;-2.39;100.00;99810.09;4944394;28;20045;-76
2022/11/21 01:56:13;;;;;;;19.95;9.10;;;;;;;-2.43;100.00;99808.66;4959258;28;20667;-73
2022/11/21 01:58:40;;;;;;;17.17;8.55;;;;;;;-2.42;100.00;99805.91;4974556;28;20069;-74
2022/11/21 02:01:06;;;;;;;15.70;8.88;;;;;;;-2.43;100.00;99798.19;4959341;28;20400;-76
2022/11/21 02:03:35;;;;;;;20.30;9.18;;;;;;;-2.39;100.00;99802.25;4958116;28;20045;-75
2022/11/21 02:06:01;;;;;;;19.98;9.85;;;;;;;-2.38;100.00;99801.31;4946826;28;20077;-76
2022/11/21 02:08:27;;;;;;;19.27;8.82;;;;;;;-2.36;100.00;99800.28;4958511;28;20544;-76
2022/11/21 02:11:21;;;;;;;20.27;10.38;;;;;;;-2.31;100.00;99796.53;4949006;28;20045;-74
2022/11/21 02:13:46;;;;;;;21.30;9.40;;;;;;;-2.32;100.00;99793.06;4975268;28;20047;-75
2022/11/21 02:16:12;;;;;;;17.27;8.75;;;;;;;-2.29;100.00;99798.09;4958932;28;20566;-74
2022/11/21 02:18:38;;;;;;;15.48;8.85;;;;;;;-2.30;100.00;99785.13;4958006;28;20125;-73
2022/11/21 02:21:23;;;;;;;18.13;9.32;;;;;;;-2.23;100.00;99799.44;4959940;28;20440;-76
2022/11/21 02:24:14;;;;;;;17.70;10.00;;;;;;;-2.27;100.00;99795.34;4974238;28;20478;-76
2022/11/21 02:26:40;;;;;;;15.23;9.13;;;;;;;-2.31;100.00;99780.84;4941317;28;20086;-76
2022/11/21 02:29:05;;;;;;;;;;;;;;;-2.26;100.00;99787.41;4959709;28;20048;-75
2022/11/21 02:31:30;;;;;;;17.48;8.77;;;;;;;-2.33;100.00;99767.88;4957142;28;20438;-75
2022/11/21 02:33:56;;;;;;;17.80;9.70;;;;;;;-2.30;100.00;99778.09;4989469;23;20038;-74
2022/11/21 02:36:37;;;;;;;16.75;9.50;;;;;;;-2.25;100.00;99778.63;4986905;28;20388;-73
2022/11/21 02:39:05;;;;;;;21.13;10.00;;;;;;;-2.25;100.00;99770.78;4997524;28;20030;-71
2022/11/21 02:41:34;;;;;;;16.65;8.95;;;;;;;-2.14;100.00;99778.72;4987286;28;20506;-73
2022/11/21 02:44:21;;;;;;;19.88;9.60;;;;;;;-2.12;100.00;99779.47;4979117;28;20842;-73
2022/11/21 02:46:49;;;;;;;19.80;10.25;;;;;;;-2.04;100.00;99776.31;4985058;28;20030;-72
2022/11/21 02:49:20;;;;;;;17.50;8.82;;;;;;;-2.00;100.00;99779.56;4985666;28;20038;-73
2022/11/21 02:51:45;;;;;;;20.98;10.00;;;;;;;-2.03;100.00;99766.72;4986201;28;20038;-71
2022/11/21 02:54:10;;;;;;;18.80;9.33;;;;;;;-2.00;100.00;99767.31;4985224;28;20034;-72
2022/11/21 02:56:36;;;;;;;17.83;10.02;;;;;;;-2.04;100.00;99765.03;4986681;28;20335;-70
2022/11/21 02:59:01;;;;;;;24.17;10.02;;;;;;;-2.09;100.00;99757.50;4985945;28;20042;-71
2022/11/21 03:01:26;;;;;;;17.90;9.63;;;;;;;-2.07;100.00;99755.59;4984433;28;20117;-71
2022/11/21 03:03:52;;;;;;;21.15;9.07;;;;;;;-2.01;100.00;99749.13;4995206;28;20066;-71
2022/11/21 03:06:17;;;;;;;20.77;9.38;;;;;;;-1.99;100.00;99747.22;4985685;28;20034;-74
2022/11/21 03:08:42;;;;;;;18.50;9.70;;;;;;;-2.05;100.00;99747.66;4991233;28;20046;-73
2022/11/21 03:11:08;;;;;;;16.73;8.70;;;;;;;-2.03;100.00;99738.78;4989248;28;20486;-70
2022/11/21 03:13:33;;;;;;;18.38;9.52;;;;;;;-2.03;100.00;99732.72;4986142;28;20407;-71
2022/11/21 03:15:58;;;;;;;17.10;9.40;;;;;;;-2.04;100.00;99725.78;4986465;28;20542;-70
2022/11/21 03:18:24;;;;;;;18.60;9.45;;;;;;;-2.03;100.00;99733.53;4986101;28;20380;-71
2022/11/21 03:20:49;;;;;;;19.42;9.85;;;;;;;-1.99;100.00;99731.53;4988426;28;20431;-71
2022/11/21 03:23:14;;;;;;;16.52;8.27;;;;;;;-2.02;100.00;99723.91;4987501;28;20038;-70
2022/11/21 03:25:40;;;;;;;21.13;9.85;;;;;;;-2.04;100.00;99717.94;4986684;28;20376;-71
2022/11/21 03:28:05;;;;;;;19.70;10.23;;;;;;;-2.02;100.00;99710.81;4989368;28;20125;-70
2022/11/21 03:30:31;;;;;;;19.23;10.20;;;;;;;-2.00;100.00;99717.63;4985648;28;20077;-70
2022/11/21 03:32:56;;;;;;;;;;;;;;;-2.00;100.00;99712.38;4986786;28;20038;-70
2022/11/21 03:35:22;;;;;;;18.10;9.43;;;;;;;-2.07;100.00;99710.31;4985083;28;19917;-72
2022/11/21 03:37:47;;;;;;;17.70;10.70;;;;;;;-2.06;100.00;99717.22;4984054;28;20034;-73
2022/11/21 03:40:13;;;;;;;19.25;9.32;;;;;;;-2.09;100.00;99717.44;4988831;28;20064;-71
2022/11/21 03:42:38;;;;;;;18.98;9.15;;;;;;;-2.13;100.00;99719.44;4986045;28;20041;-73
2022/11/21 03:45:04;;;;;;;17.92;10.50;;;;;;;-2.15;100.00;99719.53;4989190;28;20038;-74
2022/11/21 03:47:30;;;;;;;17.65;9.30;;;;;;;-2.13;100.00;99729.91;4988364;28;20034;-74
2022/11/21 03:49:55;;;;;;;18.27;10.05;;;;;;;-2.13;100.00;99733.34;4988470;28;20052;-73
2022/11/21 03:52:20;;;;;;;19.75;10.18;;;;;;;-2.09;100.00;99733.13;4989082;28;20099;-73
2022/11/21 03:54:46;;;;;;;20.35;10.93;;;;;;;-2.10;100.00;99737.53;4988552;28;20038;-72
2022/11/21 03:57:11;;;;;;;22.85;10.60;;;;;;;-2.07;100.00;99736.47;4989471;28;20124;-70
2022/11/21 03:59:36;;;;;;;21.67;11.15;;;;;;;-1.95;100.00;99741.66;4990427;28;20039;-72
2022/11/21 04:02:02;;;;;;;20.50;11.93;;;;;;;-1.89;100.00;99750.06;4988683;28;20549;-71
2022/11/21 04:04:27;;;;;;;20.58;10.88;;;;;;;-1.89;100.00;99750.88;4990185;28;20034;-73
2022/11/21 04:06:52;;;;;;;23.83;11.90;;;;;;;-1.92;100.00;99756.31;4989052;28;20034;-73
2022/11/21 04:09:18;;;;;;;25.85;13.05;;;;;;;-1.94;100.00;99759.06;4990254;28;20046;-71
2022/11/21 04:11:43;;;;;;;23.03;12.47;;;;;;;-1.98;100.00;99751.53;4988619;28;20042;-70
2022/11/21 04:14:08;;;;;;;19.92;11.38;;;;;;;-1.96;100.00;99762.72;4988148;28;20269;-72
2022/11/21 04:16:34;;;;;;;24.10;10.82;;;;;;;-1.97;100.00;99761.03;4989055;28;20042;-70
2022/11/21 04:18:59;;;;;;;24.33;13.55;;;;;;;-2.02;100.00;99752.69;4971256;28;20069;-71
2022/11/21 04:21:24;;;;;;;25.27;13.05;;;;;;;-2.07;100.00;99758.22;4987285;28;20042;-70
2022/11/21 04:23:50;;;;;;;20.77;11.85;;;;;;;-2.03;100.00;99759.69;4988804;28;20038;-71
2022/11/21 04:26:15;;;;;;;23.55;11.63;;;;;;;-2.04;100.00;99758.00;4989023;28;20108;-72
2022/11/21 04:28:40;;;;;;;25.92;13.23;;;;;;;-2.04;100.00;99759.78;4989488;28;20027;-71
2022/11/21 04:31:07;;;;;;;21.15;12.32;;;;;;;-2.09;100.00;99765.34;4988778;28;20039;-70
2022/11/21 04:33:32;;;;;;;25.40;12.98;;;;;;;-2.10;100.00;99755.84;4992821;28;20092;-73
2022/11/21 04:35:58;;;;;;;28.33;13.18;;;;;;;-2.10;100.00;99758.44;4988719;28;20033;-71
2022/11/21 04:38:23;;;;;;;23.02;11.63;;;;;;;-2.11;100.00;99762.00;4987435;28;20030;-72
2022/11/21 04:40:49;;;;;;;24.42;13.38;;;;;;;-2.13;100.00;99762.13;4993400;28;20169;-70
2022/11/21 04:43:14;;;;;;;26.33;12.20;;;;;;;-2.09;100.00;99780.19;4987127;28;20121;-70
2022/11/21 04:45:40;;;;;;;23.75;11.98;;;;;;;-2.10;100.00;99775.94;4990416;28;20495;-72
2022/11/21 04:48:05;;;;;;;21.80;11.82;;;;;;;-2.10;100.00;99768.91;4991309;28;20497;-70
2022/11/21 04:50:31;;;;;;;26.15;12.57;;;;;;;-2.02;100.00;99768.38;4987215;28;20031;-70
2022/11/21 04:52:56;;;;;;;21.20;11.07;;;;;;;-2.02;100.00;99776.22;4986659;28;20467;-70
2022/11/21 04:55:25;;;;;;;23.83;12.07;;;;;;;-2.02;100.00;99771.81;4987877;28;20558;-71
2022/11/21 04:57:51;;;;;;;21.25;11.38;;;;;;;-1.96;100.00;99775.81;4988416;28;20045;-70
2022/11/21 05:00:17;;;;;;;25.70;12.43;;;;;;;-1.93;100.00;99775.59;4990678;28;20038;-71
2022/11/21 05:02:42;;;;;;;;;;;;;;;-1.96;100.00;99771.41;4989096;28;20308;-72
2022/11/21 05:05:08;;;;;;;22.15;10.63;;;;;;;-1.96;100.00;99767.97;4986922;28;19913;-71
2022/11/21 05:07:34;;;;;;;21.13;11.90;;;;;;;-1.97;100.00;99768.88;4987180;28;20026;-71
2022/11/21 05:10:00;;;;;;;21.20;11.35;;;;;;;-1.94;100.00;99771.31;4987172;28;20484;-70
2022/11/21 05:15:09;;;;;;;15.80;7.10;;;;;;;-1.91;100.00;99773.69;4984964;28;20038;-70
2022/11/21 05:17:35;;;;;;;15.75;7.82;;;;;;;-1.93;100.00;99772.97;4970657;28;20048;-71
2022/11/21 05:20:00;;;;;;;13.10;6.53;;;;;;;-1.90;100.00;99767.50;4987524;28;20152;-71
2022/11/21 05:22:26;;;;;;;9.82;5.32;;;;;;;-1.89;100.00;99753.50;4970437;28;20137;-71
2022/11/21 05:24:51;;;;;;;9.45;5.30;;;;;;;-1.91;100.00;99742.31;4970608;28;20136;-71
2022/11/21 05:27:16;;;;;;;8.20;4.63;;;;;;;-1.91;100.00;99737.91;4988655;28;20518;-71
2022/11/21 05:29:42;;;;;;;9.88;5.45;;;;;;;-1.92;100.00;99725.78;4989419;28;20042;-72
2022/11/21 05:32:07;;;;;;;7.20;4.07;;;;;;;-1.89;100.00;99716.88;4987859;28;20042;-76
2022/11/21 05:34:33;;;;;;;8.82;5.10;;;;;;;-1.89;100.00;99706.41;4994810;28;20120;-72
2022/11/21 05:36:58;;;;;;;7.50;4.53;;;;;;;-1.91;100.00;99690.81;4987726;28;20030;-71
2022/11/21 05:39:24;;;;;;;7.18;4.28;;;;;;;-1.90;100.00;99683.78;4987047;28;20164;-71
2022/11/21 05:41:49;;;;;;;8.40;5.40;;;;;;;-2.00;100.00;99675.75;4987801;28;20026;-71
2022/11/21 05:44:15;;;;;;;9.90;5.03;;;;;;;-1.99;100.00;99676.59;4988064;28;20522;-71
2022/11/21 05:46:40;;;;;;;10.85;5.00;;;;;;;-1.88;100.00;99674.06;4988228;28;20096;-71
2022/11/21 05:49:06;;;;;;;10.18;4.85;;;;;;;-1.94;100.00;99679.75;4988217;28;20070;-72
2022/11/21 05:51:31;;;;;;;13.68;6.57;;;;;;;-1.88;100.00;99681.91;4987661;28;20080;-72
2022/11/21 05:53:58;;;;;;;14.60;7.30;;;;;;;-1.97;100.00;99670.34;4987008;28;20038;-74
2022/11/21 05:56:23;;;;;;;;;;;;;;;-1.92;100.00;99673.47;4987288;28;20026;-72
2022/11/21 05:58:48;;;;;;;17.80;7.78;;;;;;;-1.97;100.00;99653.78;4987494;28;19914;-71
2022/11/21 06:01:14;;;;;;;13.57;7.70;;;;;;;-1.97;100.00;99649.41;4986869;28;20502;-72
2022/11/21 06:03:41;;;;;;;15.32;8.65;;;;;;;-2.00;100.00;99644.38;4987699;28;20498;-71
2022/11/21 06:06:08;;;;;;;12.73;7.30;;;;;;;-2.03;100.00;99643.78;4986389;28;20073;-70
2022/11/21 06:08:38;;;;;;;18.45;9.35;;;;;;;-2.10;100.00;99637.31;4976956;28;20041;-71
2022/11/21 06:11:05;;;;;;;16.00;8.15;;;;;;;-2.13;100.00;99644.44;4985295;28;20046;-71
2022/11/21 06:13:32;;;;;;;15.60;8.40;;;;;;;-2.12;100.00;99648.69;4987055;28;20053;-71
2022/11/21 06:15:57;;;;;;;15.95;8.65;;;;;;;-2.16;100.00;99649.84;4985178;28;20049;-73
2022/11/21 06:18:23;;;;;;;17.93;8.70;;;;;;;-2.13;100.00;99657.50;4985463;28;20027;-71
2022/11/21 06:20:49;;;;;;;20.58;10.38;;;;;;;-2.03;100.00;99664.69;4986523;28;20476;-74
2022/11/21 06:23:14;;;;;;;17.25;8.57;;;;;;;-2.01;100.00;99663.66;4987443;28;20415;-72
2022/11/21 06:25:40;;;;;;;15.48;8.82;;;;;;;-1.95;100.00;99672.81;4985354;28;20080;-71
2022/11/21 06:28:05;;;;;;;14.95;8.93;;;;;;;-1.97;100.00;99670.34;4986429;28;20494;-71
2022/11/21 06:30:30;;;;;;;16.30;8.80;;;;;;;-1.95;100.00;99676.28;4989720;28;20092;-72
2022/11/21 06:32:56;;;;;;;18.85;9.68;;;;;;;-1.96;100.00;99672.00;4977805;28;20046;-71
2022/11/21 06:35:21;;;;;;;15.30;8.05;;;;;;;-1.93;100.00;99681.41;4990159;28;20069;-72
2022/11/21 06:37:46;;;;;;;20.40;8.77;;;;;;;-1.94;100.00;99677.97;4989426;28;20074;-71
2022/11/21 06:40:12;;;;;;;17.95;8.90;;;;;;;-1.92;100.00;99670.84;4986458;28;20533;-71
2022/11/21 06:42:37;;;;;;;21.92;8.40;;;;;;;-1.93;100.00;99670.94;4985445;28;20035;-71
2022/11/21 06:45:03;;;;;;;14.02;7.85;;;;;;;-1.86;100.00;99672.16;4985737;28;20565;-74
2022/11/21 06:47:33;;;;;;;17.02;8.95;;;;;;;-1.81;100.00;99672.66;4984870;28;20130;-72
2022/11/21 06:49:59;;;;;;;14.85;8.40;;;;;;;-1.81;100.00;99669.22;4986084;28;20550;-71
2022/11/21 06:52:24;;;;;;;;;;;;;;;-1.74;100.00;99673.06;4986077;28;20045;-71
2022/11/21 06:54:50;;;;;;;13.77;7.45;;;;;;;-1.79;100.00;99673.41;4985245;28;19913;-71
2022/11/21 06:57:15;;;;;;;15.85;8.50;;;;;;;-1.78;100.00;99672.47;4989160;28;20089;-71
2022/11/21 06:59:41;;;;;;;12.45;7.18;;;;;;;-1.73;100.00;99672.16;4996291;28;20064;-71
2022/11/21 07:02:11;;;;;;;14.32;7.05;;;;;;;-1.74;100.00;99675.69;4993089;28;20045;-71
2022/11/21 07:04:37;;;;;;;14.35;7.72;;;;;;;-1.75;100.00;99676.66;4986354;28;20034;-70
2022/11/21 07:07:02;;;;;;;13.27;7.45;;;;;;;-1.72;100.00;99677.25;4998555;28;20041;-71
2022/11/21 07:09:28;;;;;;;14.13;6.75;;;;;;;-1.68;100.00;99684.91;5004746;28;20491;-74
2022/11/21 07:11:53;;;;;;;20.75;11.05;;;;;;;-1.68;100.00;99695.38;5004540;28;20044;-72
2022/11/21 07:14:18;;;;;;;17.05;7.35;;;;;;;-1.70;100.00;99693.69;4990220;28;20172;-71
2022/11/21 07:16:44;;;;;;;12.65;6.63;;;;;;;-1.65;100.00;99695.97;4985258;28;20078;-72
2022/11/21 07:19:10;;;;;;;14.45;7.68;;;;;;;-1.59;100.00;99702.53;4991203;28;20072;-70
2022/11/21 07:21:36;;;;;;;11.30;6.68;;;;;;;-1.59;100.00;99711.25;5004322;28;20510;-72
2022/11/21 07:24:01;;;;;;;12.85;6.72;;;;;;;-1.58;100.00;99701.59;5005862;28;20030;-71
2022/11/21 07:26:27;;;;;;;12.23;7.60;;;;;;;-1.59;100.00;99695.53;4985126;28;20046;-71
2022/11/21 07:28:52;;;;;;;15.40;6.75;;;;;;;-1.53;100.00;99689.00;4986208;28;20095;-74
2022/11/21 07:31:17;;;;;;;14.07;7.43;;;;;;;-1.47;100.00;99672.88;4985348;28;20066;-73
2022/11/21 07:33:44;;;;;;;12.98;7.03;;;;;;;-1.47;100.00;99664.19;4985252;28;20035;-73
2022/11/21 07:36:11;;;;;;;12.40;6.55;;;;;;;-1.49;100.00;99645.97;4985347;28;20034;-71
2022/11/21 07:38:36;;;;;;;11.00;6.55;;;;;;;-1.48;100.00;99639.78;4985047;28;20034;-72
2022/11/21 07:41:02;;;;;;;12.38;7.03;;;;;;;-1.48;100.00;99624.06;4984484;28;20038;-71
2022/11/21 07:43:27;;;;;;;14.35;6.20;;;;;;;-1.41;100.00;99616.59;4985590;28;20035;-72
2022/11/21 07:45:53;;;;;;;9.27;5.03;;;;;;;-1.36;100.00;99607.47;4983649;28;20042;-74
2022/11/21 07:48:18;;;;;;;10.13;5.38;;;;;;;-1.31;100.00;99591.41;4985093;28;20053;-72
2022/11/21 07:50:46;;;;;;;8.77;5.50;;;;;;;-1.26;100.00;99584.03;4983869;28;20046;-72
2022/11/21 07:53:15;;;;;;;10.85;5.28;;;;;;;-1.24;100.00;99558.56;4968088;28;20329;-71
2022/11/21 07:55:40;;;;;;;11.67;4.67;;;;;;;-1.16;100.00;99555.38;4983609;28;20073;-71
2022/11/21 07:58:08;;;;;;;7.47;3.78;;;;;;;-1.15;100.00;99563.13;4985067;28;20324;-71
2022/11/21 08:00:35;;;;;;;6.70;4.38;;;;;;;-1.07;100.00;99545.00;4993633;28;20057;-73
2022/11/21 08:03:03;;;;;;;8.25;4.55;;;;;;;-1.09;100.00;99522.50;4980845;28;20045;-72
2022/11/21 08:05:28;;;;;;;6.82;4.60;;;;;;;-1.06;100.00;99519.66;4984887;28;20045;-71
2022/11/21 08:07:53;;;;;;;7.97;4.55;;;;;;;-1.02;100.00;99510.59;4994849;28;20039;-72
2022/11/21 08:10:19;;;;;;;7.70;3.45;;;;;;;-0.97;100.00;99492.72;4983999;28;20388;-71
2022/11/21 08:12:44;;;;;;;6.32;3.90;;;;;;;-0.87;100.00;99458.78;4984991;28;20391;-71
2022/11/21 08:15:10;;;;;;;9.55;3.97;;;;;;;-0.83;100.00;99441.03;4983407;28;20069;-71
2022/11/21 08:17:37;;;;;;;5.65;3.47;;;;;;;-0.83;100.00;99414.84;4985002;28;20124;-72
2022/11/21 08:20:03;;;;;;;5.13;3.72;;;;;;;-0.73;100.00;99392.16;4968500;28;20042;-74
2022/11/21 08:22:29;;;;;;;8.38;4.13;;;;;;;-0.72;100.00;99371.09;4983428;28;20038;-71
2022/11/21 08:24:54;;;;;;;6.60;4.33;;;;;;;-0.77;100.00;99351.44;4967732;28;20035;-72
2022/11/21 08:27:20;;;;;;;8.65;4.93;;;;;;;-0.62;100.00;99352.00;4984891;28;20065;-72
2022/11/21 08:29:46;;;;;;;;;;;;;;;-0.19;100.00;99383.38;4989038;28;20046;-72
2022/11/21 08:32:12;;;;;;;9.27;4.38;;;;;;;-0.27;100.00;99376.16;4970978;28;19914;-71
2022/11/21 08:37:05;;;;;;;8.07;5.15;;;;;;;-0.43;100.00;99334.59;4983638;28;20053;-73
2022/11/21 08:39:30;;;;;;;8.47;5.80;;;;;;;-0.48;100.00;99318.44;4970631;28;20399;-74
2022/11/21 08:42:02;;;;;;;9.15;4.60;;;;;;;-0.45;100.00;99318.16;4985430;28;20137;-74
2022/11/21 08:44:29;;;;;;;9.35;5.80;;;;;;;-0.52;100.00;99303.06;4967897;28;20342;-74
2022/11/21 08:46:55;;;;;;;9.57;5.30;;;;;;;-0.50;100.00;99322.97;4959920;28;20051;-74
2022/11/21 08:49:20;;;;;;;10.45;5.57;;;;;;;-0.51;100.00;99308.22;4966415;28;20460;-75
2022/11/21 08:51:49;;;;;;;10.32;6.15;;;;;;;-0.55;100.00;99303.34;4965917;28;20039;-74
2022/11/21 08:54:18;;;;;;;9.88;5.88;;;;;;;-0.66;100.00;99307.69;4964675;28;20400;-74
2022/11/21 08:56:44;;;;;;;9.20;5.95;;;;;;;-0.48;100.00;99331.53;4966598;28;20042;-74
2022/11/21 08:59:09;;;;;;;9.05;5.90;;;;;;;-0.53;100.00;99338.13;4967653;28;20038;-75
2022/11/21 09:01:35;;;;;;;12.38;6.30;;;;;;;-0.52;100.00;99339.78;4965590;28;20062;-74
2022/11/21 09:04:00;;;;;;;9.63;6.25;;;;;;;-0.54;100.00;99347.78;4967589;28;20039;-75
2022/11/21 09:06:25;;;;;;;11.65;7.05;;;;;;;-0.68;100.00;99337.56;4967346;28;20038;-74
2022/11/21 09:08:51;;;;;;;13.35;7.03;;;;;;;-0.70;100.00;99357.88;4979261;28;20484;-74
2022/11/21 09:11:17;;;;;;;15.20;7.38;;;;;;;-0.76;100.00;99372.28;4950922;28;20944;-74
2022/11/21 09:13:42;;;;;;;11.43;7.05;;;;;;;-0.87;100.00;99373.16;4966549;28;20528;-74
2022/11/21 09:18:54;;;;;;;13.90;7.30;;;;;;;-0.61;100.00;99433.13;4967768;28;20066;-75
2022/11/21 09:21:20;;;;;;;15.50;8.03;;;;;;;-0.65;100.00;99447.44;4931762;28;20479;-74
2022/11/21 09:23:46;;;;;;;;;;;;;;;-0.64;100.00;99464.81;4948736;28;20061;-75
2022/11/21 09:26:12;;;;;;;14.13;7.10;;;;;;;-0.65;100.00;99477.09;4946818;28;20668;-75
2022/11/21 09:28:40;;;;;;;15.05;7.93;;;;;;;-0.58;100.00;99487.94;4967129;28;20043;-75
2022/11/21 09:31:06;;;;;;;12.70;7.28;;;;;;;-0.55;100.00;99492.09;4963719;28;20039;-74
2022/11/21 09:33:31;;;;;;;11.35;7.03;;;;;;;-0.58;100.00;99487.94;4958792;28;20089;-75
2022/11/21 09:36:00;;;;;;;11.95;7.15;;;;;;;-0.61;100.00;99480.31;4953998;28;20050;-75
2022/11/21 09:38:27;;;;;;;14.73;8.00;;;;;;;-0.63;100.00;99474.38;4967808;28;20031;-74
2022/11/21 09:41:50;;;;;;;13.68;8.27;;;;;;;-0.61;100.00;99488.16;4957284;28;20070;-75
2022/11/21 09:44:19;;;;;;;12.35;7.10;;;;;;;-0.57;100.00;99488.78;4956956;28;20031;-74
2022/11/21 09:46:47;;;;;;;12.43;6.45;;;;;;;-0.50;100.00;99492.56;4948699;28;20035;-75
2022/11/21 09:49:14;;;;;;;12.75;7.15;;;;;;;-0.65;100.00;99465.78;4959740;28;20067;-75
2022/11/21 09:51:42;;;;;;;13.98;7.22;;;;;;;-0.72;100.00;99452.34;4963167;28;20070;-74
2022/11/21 09:54:19;;;;;;;15.55;6.70;;;;;;;-0.67;100.00;99447.56;4962273;28;20030;-74
2022/11/21 09:56:46;;;;;;;10.40;6.07;;;;;;;-0.65;100.00;99450.06;4966309;28;20074;-75
2022/11/21 09:59:28;;;;;;;12.18;6.80;;;;;;;-0.66;100.00;99445.75;4962868;28;20502;-74
2022/11/21 10:01:53;;;;;;;11.80;7.10;;;;;;;-0.73;100.00;99431.47;4947588;28;20130;-75
2022/11/21 10:04:19;;;;;;;10.98;6.40;;;;;;;-0.54;100.00;99442.19;4955811;28;20141;-74
2022/11/21 10:06:53;;;;;;;11.70;6.90;;;;;;;-0.53;100.00;99435.97;4956334;28;20038;-75
2022/11/21 10:09:46;;;;;;;13.27;6.90;;;;;;;-0.55;100.00;99413.44;4959441;28;20039;-74
2022/11/21 10:12:39;;;;;;;12.43;6.93;;;;;;;-0.45;100.00;99420.44;4962928;28;20042;-74
2022/11/21 10:15:28;;;;;;;10.85;6.30;;;;;;;-0.45;100.00;99404.69;4965676;28;20503;-74
2022/11/21 10:18:18;;;;;;;10.90;5.75;;;;;;;-0.36;100.00;99386.56;4960101;28;20432;-75
2022/11/21 10:21:02;;;;;;;11.07;6.22;;;;;;;-0.27;100.00;99377.94;4962653;28;20389;-74
2022/11/21 10:23:36;;;;;;;9.93;6.53;;;;;;;-0.03;100.00;99394.25;4966352;28;20555;-74
2022/11/21 10:26:27;;;;;;;10.38;5.95;;;;;;;-0.27;100.00;99326.31;4966567;28;20038;-74
2022/11/21 10:29:03;;;;;;;11.38;5.93;;;;;;;-0.12;100.00;99325.97;4965615;28;20514;-75
2022/11/21 10:31:36;;;;;;;10.33;6.20;;;;;;;-0.20;100.00;99296.94;4965433;28;20459;-75
2022/11/21 10:34:09;;;;;;;10.63;6.50;;;;;;;-0.30;100.00;99279.38;4966817;28;20145;-75
2022/11/21 10:36:37;;;;;;;13.20;6.30;;;;;;;-0.02;100.00;99317.22;4962050;28;20046;-73
2022/11/21 10:39:13;;;;;;;14.23;6.15;;;;;;;0.16;100.00;99325.34;4965594;28;20486;-72
2022/11/21 10:41:52;;;;;;;8.77;5.75;;;;;;;0.06;100.00;99292.94;4962279;28;20030;-74
2022/11/21 10:47:27;;;;;;;12.13;6.50;;;;;;;0.38;100.00;99313.81;4964893;28;20407;-75
2022/11/21 10:50:16;;;;;;;12.02;6.63;;;;;;;0.29;100.00;99277.84;4963635;28;20381;-75
2022/11/21 10:52:48;;;;;;;12.52;6.18;;;;;;;0.30;100.00;99255.03;4958310;28;20182;-75
2022/11/21 10:55:14;;;;;;;13.38;8.18;;;;;;;0.34;100.00;99257.28;4949333;28;20500;-75
2022/11/21 10:57:51;;;;;;;11.23;6.55;;;;;;;0.31;100.00;99238.34;4963616;28;20085;-73
2022/11/21 11:00:22;;;;;;;14.73;7.32;;;;;;;0.37;100.00;99259.63;4964917;28;20077;-75
2022/11/21 11:02:53;;;;;;;11.85;7.32;;;;;;;0.31;100.00;99246.22;4964692;28;20137;-74
2022/11/21 11:05:21;;;;;;;19.33;8.63;;;;;;;0.22;100.00;99236.53;4964763;28;20039;-74
2022/11/21 11:08:00;;;;;;;18.08;7.82;;;;;;;0.09;100.00;99236.72;4964013;28;20035;-76
2022/11/21 11:10:26;;;;;;;16.70;9.63;;;;;;;0.14;100.00;99253.75;4964448;28;20448;-74
2022/11/21 11:15:50;;;;;;;16.33;8.43;;;;;;;0.23;100.00;99282.78;4962166;28;20511;-74
2022/11/21 11:18:20;;;;;;;15.57;9.07;;;;;;;0.44;100.00;99327.38;4965318;28;20031;-73
2022/11/21 11:20:45;;;;;;;14.23;9.07;;;;;;;0.47;100.00;99306.09;4973645;28;20070;-75
2022/11/21 11:23:25;;;;;;;14.90;8.00;;;;;;;0.59;100.00;99315.53;4959909;28;20047;-73
2022/11/21 11:25:51;;;;;;;15.82;8.52;;;;;;;0.55;100.00;99241.44;4943818;28;20046;-73
2022/11/21 11:28:18;;;;;;;15.70;8.30;;;;;;;0.50;100.00;99175.38;4948365;28;20054;-74
2022/11/21 11:30:43;;;;;;;;;;;;;;;0.70;100.00;99202.47;4956696;28;20041;-74
2022/11/21 11:33:27;;;;;;;14.80;8.55;;;;;;;0.75;100.00;99165.28;4953448;28;19915;-73
2022/11/21 11:35:56;;;;;;;16.63;7.38;;;;;;;0.94;100.00;99154.78;4959576;28;20125;-73
2022/11/21 11:38:25;;;;;;;14.00;7.75;;;;;;;1.14;100.00;99167.88;4981111;28;20045;-75